createdAt,value
2016-03-30T00:00:56.389Z,7.44
2016-03-30T00:01:56.204Z,7.59
2016-03-30T00:02:56.347Z,7.58
2016-03-30T00:03:56.318Z,7.6
2016-03-30T00:04:56.290Z,7.58
2016-03-30T00:05:56.261Z,7.53
2016-03-30T00:06:56.248Z,7.55
2016-03-30T00:07:56.220Z,7.55
2016-03-30T00:08:56.176Z,7.52
2016-03-30T00:09:56.147Z,7.56
2016-03-30T00:10:56.134Z,7.6
2016-03-30T00:11:56.106Z,7.53
2016-03-30T00:12:56.062Z,7.53
2016-03-30T00:13:56.049Z,7.53
2016-03-30T00:14:56.019Z,7.53
2016-03-30T00:15:55.992Z,7.58
2016-03-30T00:16:55.978Z,7.58
2016-03-30T00:17:55.950Z,7.6
2016-03-30T00:18:55.922Z,7.55
2016-03-30T00:19:55.909Z,7.6
2016-03-30T00:20:55.880Z,7.53
2016-03-30T00:21:55.835Z,7.58
2016-03-30T00:22:55.808Z,7.52
2016-03-30T00:23:55.794Z,7.52
2016-03-30T00:24:55.766Z,7.56
2016-03-30T00:25:55.721Z,7.5
2016-03-30T00:26:55.724Z,7.58
2016-03-30T00:27:55.696Z,7.53
2016-03-30T00:28:55.651Z,7.59
2016-03-30T00:29:55.623Z,7.6
2016-03-30T00:30:55.595Z,7.59
2016-03-30T00:31:55.581Z,7.58
2016-03-30T00:32:55.553Z,7.62
2016-03-30T00:33:55.523Z,7.52
2016-03-30T00:34:55.495Z,7.56
2016-03-30T00:35:55.483Z,7.62
2016-03-30T00:36:55.469Z,7.55
2016-03-30T00:37:55.426Z,7.6
2016-03-30T00:38:55.397Z,7.56
2016-03-30T00:39:55.369Z,7.6
2016-03-30T00:40:55.340Z,7.52
2016-03-30T00:41:55.327Z,7.58
2016-03-30T00:42:55.314Z,7.58
2016-03-30T00:43:55.269Z,7.63
2016-03-30T00:44:55.383Z,7.58
2016-03-30T00:45:55.213Z,7.53
2016-03-30T00:46:55.184Z,7.59
2016-03-30T00:47:55.155Z,7.63
2016-03-30T00:48:55.127Z,7.62
2016-03-30T00:49:55.114Z,7.58
2016-03-30T00:50:55.086Z,7.53
2016-03-30T00:51:55.042Z,7.59
2016-03-30T00:52:55.044Z,7.63
2016-03-30T00:53:54.999Z,7.67
2016-03-30T00:54:54.971Z,7.66
2016-03-30T00:55:55.005Z,7.72
2016-03-30T00:56:54.930Z,7.67
2016-03-30T00:57:54.901Z,7.69
2016-03-30T00:58:54.873Z,7.63
2016-03-30T00:59:54.876Z,7.79
2016-03-30T01:00:54.846Z,7.77
2016-03-30T01:01:54.788Z,7.81
2016-03-30T01:02:54.774Z,7.74
2016-03-30T01:03:54.746Z,7.66
2016-03-30T01:04:54.717Z,7.69
2016-03-30T01:05:54.704Z,7.66
2016-03-30T01:06:54.673Z,7.72
2016-03-30T01:07:54.618Z,7.71
2016-03-30T01:08:54.594Z,7.62
2016-03-30T01:09:54.555Z,7.69
2016-03-30T01:10:54.516Z,7.71
2016-03-30T01:11:54.494Z,7.66
2016-03-30T01:12:54.461Z,7.66
2016-03-30T01:13:58.365Z,7.66
2016-03-30T01:14:56.833Z,7.67
2016-03-30T01:15:58.597Z,7.59
2016-03-30T01:16:54.346Z,7.69
2016-03-30T01:17:54.300Z,7.62
2016-03-30T01:18:54.270Z,7.66
2016-03-30T01:19:54.256Z,7.69
2016-03-30T01:20:54.226Z,7.66
2016-03-30T01:21:54.195Z,7.67
2016-03-30T01:22:54.167Z,7.78
2016-03-30T01:23:54.138Z,7.67
2016-03-30T01:24:54.124Z,7.72
2016-03-30T01:25:54.095Z,7.75
2016-03-30T01:26:54.067Z,7.63
2016-03-30T01:27:54.039Z,7.72
2016-03-30T01:28:54.025Z,7.75
2016-03-30T01:29:54.059Z,7.78
2016-03-30T01:30:53.968Z,7.77
2016-03-30T01:31:53.939Z,7.78
2016-03-30T01:32:53.895Z,7.78
2016-03-30T01:33:53.898Z,7.79
2016-03-30T01:34:53.854Z,7.84
2016-03-30T01:35:53.825Z,7.87
2016-03-30T01:36:53.796Z,7.9
2016-03-30T01:37:53.783Z,7.97
2016-03-30T01:38:53.755Z,7.92
2016-03-30T01:39:53.742Z,8.02
2016-03-30T01:40:53.699Z,8.08
2016-03-30T01:41:53.669Z,8.14
2016-03-30T01:42:53.641Z,8.11
2016-03-30T01:43:53.627Z,8.04
2016-03-30T01:44:53.678Z,8.15
2016-03-30T01:45:53.415Z,8.14
2016-03-30T01:46:53.558Z,8.11
2016-03-30T01:47:53.529Z,8.25
2016-03-30T01:48:53.486Z,8.18
2016-03-30T01:49:53.457Z,8.22
2016-03-30T01:50:53.444Z,8.28
2016-03-30T01:51:53.416Z,8.33
2016-03-30T01:52:53.387Z,8.3
2016-03-30T01:53:53.373Z,8.4
2016-03-30T01:54:53.345Z,8.4
2016-03-30T01:55:53.301Z,8.4
2016-03-30T01:56:53.288Z,8.4
2016-03-30T01:57:53.260Z,8.45
2016-03-30T01:58:53.247Z,8.48
2016-03-30T01:59:53.124Z,8.51
2016-03-30T02:00:53.189Z,8.48
2016-03-30T02:01:53.161Z,8.6
2016-03-30T02:02:53.133Z,8.58
2016-03-30T02:03:53.103Z,8.66
2016-03-30T02:04:53.091Z,8.65
2016-03-30T02:05:53.062Z,8.68
2016-03-30T02:06:53.033Z,8.71
2016-03-30T02:07:53.005Z,8.71
2016-03-30T02:08:52.977Z,8.66
2016-03-30T02:09:52.964Z,8.78
2016-03-30T02:10:52.779Z,8.73
2016-03-30T02:11:52.907Z,8.75
2016-03-30T02:12:52.877Z,8.81
2016-03-30T02:13:52.850Z,8.81
2016-03-30T02:14:52.836Z,8.84
2016-03-30T02:15:52.807Z,8.84
2016-03-30T02:16:52.764Z,8.86
2016-03-30T02:17:52.751Z,8.93
2016-03-30T02:18:52.738Z,8.9
2016-03-30T02:19:52.710Z,8.9
2016-03-30T02:20:52.696Z,8.93
2016-03-30T02:21:52.637Z,8.88
2016-03-30T02:22:52.655Z,8.91
2016-03-30T02:23:52.610Z,8.84
2016-03-30T02:24:52.567Z,8.94
2016-03-30T02:25:52.538Z,8.93
2016-03-30T02:26:52.526Z,9.01
2016-03-30T02:27:52.496Z,8.94
2016-03-30T02:28:52.468Z,8.97
2016-03-30T02:29:52.456Z,9.02
2016-03-30T02:30:52.412Z,8.99
2016-03-30T02:31:52.398Z,8.99
2016-03-30T02:32:52.401Z,9.02
2016-03-30T02:33:52.341Z,9.05
2016-03-30T02:34:52.328Z,9.02
2016-03-30T02:35:52.300Z,9.06
2016-03-30T02:36:52.271Z,9.09
2016-03-30T02:37:52.242Z,8.99
2016-03-30T02:38:52.230Z,9.1
2016-03-30T02:39:52.200Z,9.06
2016-03-30T02:40:52.172Z,9.16
2016-03-30T02:41:52.144Z,9.18
2016-03-30T02:42:52.116Z,9.13
2016-03-30T02:43:52.102Z,9.15
2016-03-30T02:44:52.074Z,9.1
2016-03-30T02:45:52.061Z,9.06
2016-03-30T02:46:52.016Z,9.15
2016-03-30T02:47:51.988Z,9.12
2016-03-30T02:48:51.974Z,9.15
2016-03-30T02:49:51.947Z,9.15
2016-03-30T02:50:51.933Z,9.16
2016-03-30T02:51:51.890Z,9.15
2016-03-30T02:52:51.861Z,9.13
2016-03-30T02:53:51.848Z,9.16
2016-03-30T02:54:51.819Z,9.12
2016-03-30T02:55:51.807Z,9.15
2016-03-30T02:56:51.762Z,9.18
2016-03-30T02:57:51.750Z,9.13
2016-03-30T02:58:51.721Z,9.12
2016-03-30T02:59:51.707Z,9.15
2016-03-30T03:00:51.679Z,9.13
2016-03-30T03:01:51.651Z,9.15
2016-03-30T03:02:51.637Z,9.1
2016-03-30T03:03:51.593Z,9.13
2016-03-30T03:04:51.581Z,9.2
2016-03-30T03:05:51.553Z,9.1
2016-03-30T03:06:51.523Z,9.15
2016-03-30T03:07:51.511Z,9.24
2016-03-30T03:08:51.467Z,9.25
2016-03-30T03:09:51.453Z,9.16
2016-03-30T03:10:51.409Z,9.16
2016-03-30T03:11:51.412Z,9.13
2016-03-30T03:12:51.367Z,9.18
2016-03-30T03:13:51.339Z,9.15
2016-03-30T03:14:51.327Z,9.21
2016-03-30T03:15:51.298Z,9.2
2016-03-30T03:16:51.270Z,9.27
2016-03-30T03:17:51.242Z,9.31
2016-03-30T03:18:51.212Z,9.28
2016-03-30T03:19:51.196Z,9.27
2016-03-30T03:20:51.169Z,9.3
2016-03-30T03:21:51.125Z,9.27
2016-03-30T03:22:51.127Z,9.32
2016-03-30T03:23:51.099Z,9.24
2016-03-30T03:24:51.070Z,9.31
2016-03-30T03:25:51.057Z,9.28
2016-03-30T03:26:51.028Z,9.31
2016-03-30T03:27:51.000Z,9.27
2016-03-30T03:28:50.971Z,9.28
2016-03-30T03:29:50.943Z,9.3
2016-03-30T03:30:50.914Z,9.27
2016-03-30T03:31:50.901Z,9.3
2016-03-30T03:32:50.872Z,9.25
2016-03-30T03:33:50.843Z,9.3
2016-03-30T03:34:50.831Z,9.3
2016-03-30T03:35:50.802Z,9.34
2016-03-30T03:36:50.789Z,9.3
2016-03-30T03:37:50.746Z,9.25
2016-03-30T03:38:50.732Z,9.15
2016-03-30T03:39:50.704Z,9.16
2016-03-30T03:40:50.676Z,8.99
2016-03-30T03:41:50.647Z,8.93
2016-03-30T03:42:50.618Z,8.78
2016-03-30T03:43:50.605Z,8.69
2016-03-30T03:44:50.576Z,8.62
2016-03-30T03:45:50.533Z,8.57
2016-03-30T03:46:50.519Z,8.47
2016-03-30T03:47:50.492Z,8.42
2016-03-30T03:48:50.462Z,8.37
2016-03-30T03:49:50.434Z,8.36
2016-03-30T03:50:50.406Z,8.29
2016-03-30T03:51:50.408Z,8.32
2016-03-30T03:52:50.380Z,8.22
2016-03-30T03:53:50.350Z,8.26
2016-03-30T03:54:50.307Z,8.25
2016-03-30T03:55:50.294Z,8.21
2016-03-30T03:56:50.265Z,8.18
2016-03-30T03:57:50.236Z,8.22
2016-03-30T03:58:50.223Z,8.15
2016-03-30T03:59:50.179Z,8.21
2016-03-30T04:00:50.166Z,8.25
2016-03-30T04:01:50.138Z,8.15
2016-03-30T04:02:50.109Z,8.17
2016-03-30T04:03:50.096Z,8.21
2016-03-30T04:04:50.052Z,8.14
2016-03-30T04:05:50.054Z,8.12
2016-03-30T04:06:50.010Z,8.15
2016-03-30T04:07:49.982Z,8.18
2016-03-30T04:08:49.954Z,8.11
2016-03-30T04:09:49.940Z,8.12
2016-03-30T04:10:49.912Z,8.02
2016-03-30T04:11:49.884Z,8.12
2016-03-30T04:12:49.855Z,8.17
2016-03-30T04:13:49.842Z,8.12
2016-03-30T04:14:49.813Z,8.1
2016-03-30T04:15:49.769Z,8.07
2016-03-30T04:16:49.772Z,7.97
2016-03-30T04:17:49.727Z,8.07
2016-03-30T04:18:49.700Z,8.04
2016-03-30T04:19:49.686Z,8.03
2016-03-30T04:20:49.642Z,8.04
2016-03-30T04:21:49.630Z,8.08
2016-03-30T04:22:49.617Z,8.02
2016-03-30T04:23:49.572Z,8.03
2016-03-30T04:24:49.544Z,7.96
2016-03-30T04:25:49.515Z,7.93
2016-03-30T04:26:49.486Z,7.93
2016-03-30T04:27:49.474Z,7.97
2016-03-30T04:28:49.461Z,8.04
2016-03-30T04:29:49.417Z,7.97
2016-03-30T04:30:49.388Z,7.92
2016-03-30T04:31:49.360Z,7.96
2016-03-30T04:32:49.347Z,7.99
2016-03-30T04:33:49.318Z,7.97
2016-03-30T04:34:49.274Z,7.92
2016-03-30T04:35:49.276Z,7.9
2016-03-30T04:36:49.248Z,7.89
2016-03-30T04:37:49.204Z,8.02
2016-03-30T04:38:49.175Z,7.9
2016-03-30T04:39:49.146Z,7.87
2016-03-30T04:40:49.148Z,7.9
2016-03-30T04:41:49.120Z,7.96
2016-03-30T04:42:49.076Z,7.94
2016-03-30T04:43:49.047Z,7.97
2016-03-30T04:44:49.051Z,8
2016-03-30T04:45:49.006Z,8.03
2016-03-30T04:46:48.962Z,8.03
2016-03-30T04:47:48.950Z,8.07
2016-03-30T04:48:48.921Z,8.03
2016-03-30T04:49:48.892Z,8.11
2016-03-30T04:50:48.864Z,7.96
2016-03-30T04:51:48.850Z,7.96
2016-03-30T04:52:48.822Z,8
2016-03-30T04:53:48.794Z,8.07
2016-03-30T04:54:48.764Z,8
2016-03-30T04:55:48.752Z,8.11
2016-03-30T04:56:48.707Z,8.17
2016-03-30T04:57:48.694Z,8.12
2016-03-30T04:58:48.666Z,8.08
2016-03-30T04:59:48.637Z,8.1
2016-03-30T05:00:48.610Z,8.04
2016-03-30T05:01:48.580Z,8.1
2016-03-30T05:02:48.568Z,8.11
2016-03-30T05:03:48.539Z,8.08
2016-03-30T05:04:48.510Z,8.08
2016-03-30T05:05:48.482Z,8.17
2016-03-30T05:06:48.453Z,8.11
2016-03-30T05:07:48.440Z,8.15
2016-03-30T05:08:48.412Z,8
2016-03-30T05:09:48.384Z,7.99
2016-03-30T05:10:48.355Z,8
2016-03-30T05:11:48.326Z,7.93
2016-03-30T05:12:48.298Z,7.92
2016-03-30T05:13:48.285Z,7.9
2016-03-30T05:14:48.257Z,7.93
2016-03-30T05:15:48.228Z,7.9
2016-03-30T05:16:48.199Z,7.93
2016-03-30T05:17:48.170Z,7.9
2016-03-30T05:18:48.142Z,7.84
2016-03-30T05:19:48.128Z,7.82
2016-03-30T05:20:48.084Z,7.82
2016-03-30T05:21:48.072Z,7.82
2016-03-30T05:22:48.058Z,7.87
2016-03-30T05:23:48.014Z,7.79
2016-03-30T05:24:47.986Z,7.81
2016-03-30T05:25:47.958Z,7.84
2016-03-30T05:26:47.945Z,7.81
2016-03-30T05:27:47.916Z,7.79
2016-03-30T05:28:47.903Z,7.79
2016-03-30T05:29:47.859Z,7.85
2016-03-30T05:30:47.830Z,7.85
2016-03-30T05:31:47.818Z,7.77
2016-03-30T05:32:47.788Z,7.85
2016-03-30T05:33:47.760Z,7.78
2016-03-30T05:34:47.732Z,7.78
2016-03-30T05:35:47.718Z,7.78
2016-03-30T05:36:47.690Z,7.75
2016-03-30T05:37:47.661Z,7.79
2016-03-30T05:38:47.632Z,7.78
2016-03-30T05:39:47.604Z,7.82
2016-03-30T05:40:47.592Z,7.71
2016-03-30T05:41:47.548Z,7.71
2016-03-30T05:42:47.519Z,7.78
2016-03-30T05:43:47.521Z,7.77
2016-03-30T05:44:47.493Z,7.84
2016-03-30T05:45:47.449Z,7.81
2016-03-30T05:46:47.420Z,7.79
2016-03-30T05:47:47.407Z,7.82
2016-03-30T05:48:47.378Z,7.87
2016-03-30T05:49:47.334Z,7.9
2016-03-30T05:50:47.322Z,7.92
2016-03-30T05:51:47.292Z,7.94
2016-03-30T05:52:47.281Z,8
2016-03-30T05:53:47.252Z,8.08
2016-03-30T05:54:47.208Z,7.99
2016-03-30T05:55:47.195Z,8.04
2016-03-30T05:56:47.166Z,8.07
2016-03-30T05:57:47.138Z,8.07
2016-03-30T05:58:47.108Z,8.14
2016-03-30T05:59:46.939Z,8.11
2016-03-30T06:00:47.067Z,8.14
2016-03-30T06:01:47.055Z,8.03
2016-03-30T06:02:47.010Z,8.07
2016-03-30T06:03:46.997Z,8.15
2016-03-30T06:04:46.968Z,8.11
2016-03-30T06:05:46.940Z,8.15
2016-03-30T06:06:46.927Z,8.15
2016-03-30T06:07:46.883Z,8.08
2016-03-30T06:08:46.871Z,8.15
2016-03-30T06:09:46.826Z,8.15
2016-03-30T06:10:46.813Z,8.2
2016-03-30T06:11:46.785Z,8.17
2016-03-30T06:12:46.756Z,8.12
2016-03-30T06:13:46.727Z,8.14
2016-03-30T06:14:46.714Z,8.21
2016-03-30T06:15:46.686Z,8.26
2016-03-30T06:16:46.642Z,8.22
2016-03-30T06:17:46.628Z,8.29
2016-03-30T06:18:46.615Z,8.3
2016-03-30T06:19:46.571Z,8.35
2016-03-30T06:20:46.542Z,8.32
2016-03-30T06:21:46.530Z,8.39
2016-03-30T06:22:46.500Z,8.45
2016-03-30T06:23:46.488Z,8.44
2016-03-30T06:24:46.444Z,8.45
2016-03-30T06:25:46.416Z,8.48
2016-03-30T06:26:46.403Z,8.45
2016-03-30T06:27:46.375Z,8.53
2016-03-30T06:28:46.346Z,8.57
2016-03-30T06:29:46.333Z,8.63
2016-03-30T06:30:46.304Z,8.6
2016-03-30T06:31:46.119Z,8.68
2016-03-30T06:32:46.247Z,8.72
2016-03-30T06:33:46.218Z,8.75
2016-03-30T06:34:46.206Z,8.68
2016-03-30T06:35:46.177Z,8.79
2016-03-30T06:36:46.149Z,8.73
2016-03-30T06:37:46.121Z,8.75
2016-03-30T06:38:46.107Z,8.84
2016-03-30T06:39:46.079Z,8.84
2016-03-30T06:40:46.049Z,8.71
2016-03-30T06:41:46.021Z,8.81
2016-03-30T06:42:46.009Z,8.73
2016-03-30T06:43:46.011Z,8.76
2016-03-30T06:44:45.951Z,8.76
2016-03-30T06:45:45.922Z,8.83
2016-03-30T06:46:45.910Z,8.86
2016-03-30T06:47:45.897Z,8.76
2016-03-30T06:48:45.837Z,8.93
2016-03-30T06:49:45.824Z,8.9
2016-03-30T06:50:45.795Z,8.88
2016-03-30T06:51:45.798Z,8.93
2016-03-30T06:52:45.753Z,8.96
2016-03-30T06:53:45.725Z,8.84
2016-03-30T06:54:45.728Z,8.94
2016-03-30T06:55:45.683Z,8.88
2016-03-30T06:56:45.655Z,8.91
2016-03-30T06:57:45.627Z,8.9
2016-03-30T06:58:45.613Z,8.9
2016-03-30T06:59:45.601Z,9.04
2016-03-30T07:00:45.557Z,8.94
2016-03-30T07:01:45.544Z,9.09
2016-03-30T07:02:45.500Z,9.12
2016-03-30T07:03:45.471Z,9.2
2016-03-30T07:04:45.458Z,8.99
2016-03-30T07:05:45.446Z,9.01
2016-03-30T07:06:45.401Z,8.96
2016-03-30T07:07:45.748Z,9.04
2016-03-30T07:08:45.360Z,9.01
2016-03-30T07:09:45.347Z,9.05
2016-03-30T07:10:45.303Z,9.18
2016-03-30T07:11:45.274Z,9.16
2016-03-30T07:12:45.277Z,9.24
2016-03-30T07:13:45.249Z,9.18
2016-03-30T07:14:45.221Z,9.28
2016-03-30T07:15:45.192Z,9.31
2016-03-30T07:16:45.179Z,9.45
2016-03-30T07:17:45.135Z,9.32
2016-03-30T07:18:45.107Z,9.48
2016-03-30T07:19:45.093Z,9.5
2016-03-30T07:20:45.065Z,9.4
2016-03-30T07:21:45.051Z,9.6
2016-03-30T07:22:45.023Z,9.53
2016-03-30T07:23:44.995Z,9.66
2016-03-30T07:24:44.981Z,9.66
2016-03-30T07:25:44.968Z,9.71
2016-03-30T07:26:44.924Z,9.76
2016-03-30T07:27:44.896Z,9.78
2016-03-30T07:28:44.884Z,9.73
2016-03-30T07:29:44.854Z,9.71
2016-03-30T07:30:44.842Z,9.52
2016-03-30T07:31:44.813Z,9.71
2016-03-30T07:32:44.784Z,9.78
2016-03-30T07:33:44.756Z,9.71
2016-03-30T07:34:44.742Z,9.75
2016-03-30T07:35:44.730Z,9.75
2016-03-30T07:36:44.686Z,9.75
2016-03-30T07:37:44.689Z,9.73
2016-03-30T07:38:44.645Z,9.83
2016-03-30T07:39:44.616Z,9.82
2016-03-30T07:40:44.603Z,9.83
2016-03-30T07:41:44.589Z,9.82
2016-03-30T07:42:44.561Z,9.94
2016-03-30T07:43:44.533Z,9.86
2016-03-30T07:44:44.505Z,9.82
2016-03-30T07:45:44.492Z,9.97
2016-03-30T07:46:44.463Z,9.91
2016-03-30T07:47:44.435Z,9.99
2016-03-30T07:48:44.405Z,10.15
2016-03-30T07:49:44.393Z,10.34
2016-03-30T07:50:44.364Z,10.28
2016-03-30T07:51:44.352Z,10.18
2016-03-30T07:52:44.323Z,10.07
2016-03-30T07:53:44.309Z,10.06
2016-03-30T07:54:44.265Z,10.07
2016-03-30T07:55:44.237Z,10.06
2016-03-30T07:56:44.224Z,10.01
2016-03-30T07:57:44.211Z,10.04
2016-03-30T07:58:44.167Z,10.07
2016-03-30T07:59:44.154Z,10.03
2016-03-30T08:00:44.266Z,10.01
2016-03-30T08:01:44.112Z,10.21
2016-03-30T08:02:44.100Z,10.32
2016-03-30T08:03:44.071Z,10.21
2016-03-30T08:04:43.964Z,10.17
2016-03-30T08:05:44.055Z,10.22
2016-03-30T08:06:43.842Z,10.37
2016-03-30T08:07:43.960Z,10.47
2016-03-30T08:08:44.194Z,10.19
2016-03-30T08:09:44.100Z,10.25
2016-03-30T08:10:43.884Z,10.46
2016-03-30T08:11:43.872Z,10.43
2016-03-30T08:12:43.843Z,10.34
2016-03-30T08:13:43.815Z,10.33
2016-03-30T08:14:43.786Z,10.24
2016-03-30T08:15:43.633Z,10.24
2016-03-30T08:16:43.775Z,10.37
2016-03-30T08:17:43.732Z,10.3
2016-03-30T08:18:43.703Z,10.34
2016-03-30T08:19:43.675Z,10.33
2016-03-30T08:20:43.661Z,10.24
2016-03-30T08:21:43.649Z,10.33
2016-03-30T08:22:43.605Z,10.34
2016-03-30T08:23:43.591Z,10.19
2016-03-30T08:24:43.564Z,10.3
2016-03-30T08:25:43.550Z,10.19
2016-03-30T08:26:43.522Z,10.3
2016-03-30T08:27:43.555Z,10.37
2016-03-30T08:28:43.480Z,10.22
2016-03-30T08:29:43.452Z,10.4
2016-03-30T08:30:43.455Z,10.46
2016-03-30T08:31:43.427Z,10.37
2016-03-30T08:32:43.383Z,10.34
2016-03-30T08:33:43.369Z,10.32
2016-03-30T08:34:43.325Z,10.3
2016-03-30T08:35:43.303Z,10.42
2016-03-30T08:36:43.320Z,10.44
2016-03-30T08:37:43.261Z,10.47
2016-03-30T08:38:43.248Z,10.58
2016-03-30T08:39:43.235Z,10.63
2016-03-30T08:40:43.191Z,10.63
2016-03-30T08:41:43.193Z,10.6
2016-03-30T08:42:43.149Z,10.63
2016-03-30T08:43:43.128Z,10.47
2016-03-30T08:44:43.115Z,10.43
2016-03-30T08:45:43.226Z,10.58
2016-03-30T08:46:43.057Z,10.56
2016-03-30T08:47:43.045Z,10.44
2016-03-30T08:48:43.017Z,10.44
2016-03-30T08:49:42.987Z,10.46
2016-03-30T08:50:42.959Z,10.51
2016-03-30T08:51:42.946Z,10.63
2016-03-30T08:52:42.934Z,10.59
2016-03-30T08:53:42.905Z,10.65
2016-03-30T08:54:42.876Z,10.7
2016-03-30T08:55:42.864Z,10.6
2016-03-30T08:56:42.835Z,10.56
2016-03-30T08:57:42.822Z,10.44
2016-03-30T08:58:42.793Z,10.46
2016-03-30T08:59:42.765Z,10.55
2016-03-30T09:00:42.752Z,10.55
2016-03-30T09:01:42.723Z,10.53
2016-03-30T09:02:42.710Z,10.65
2016-03-30T09:03:42.525Z,10.65
2016-03-30T09:04:42.653Z,10.65
2016-03-30T09:05:42.625Z,10.56
2016-03-30T09:06:42.596Z,10.7
2016-03-30T09:07:42.583Z,10.6
2016-03-30T09:08:42.570Z,10.65
2016-03-30T09:09:42.542Z,10.58
2016-03-30T09:10:42.513Z,10.71
2016-03-30T09:11:42.485Z,10.66
2016-03-30T09:12:42.472Z,10.78
2016-03-30T09:13:42.460Z,10.84
2016-03-30T09:14:42.430Z,10.91
2016-03-30T09:15:42.402Z,11.01
2016-03-30T09:16:42.374Z,10.8
2016-03-30T09:17:42.360Z,10.95
2016-03-30T09:18:42.332Z,11.16
2016-03-30T09:19:42.318Z,11.02
2016-03-30T09:20:42.307Z,11.03
2016-03-30T09:21:42.293Z,11.31
2016-03-30T09:22:42.265Z,11.25
2016-03-30T09:23:42.220Z,11.27
2016-03-30T09:24:42.191Z,11.29
2016-03-30T09:25:42.178Z,11.41
2016-03-30T09:26:42.151Z,11.28
2016-03-30T09:27:42.137Z,11.28
2016-03-30T09:28:42.108Z,11.36
2016-03-30T09:29:42.111Z,11.59
2016-03-30T09:30:42.208Z,11.61
2016-03-30T09:31:42.039Z,11.47
2016-03-30T09:32:42.025Z,11.39
2016-03-30T09:33:41.997Z,11.31
2016-03-30T09:34:41.984Z,11.24
2016-03-30T09:35:41.956Z,11.31
2016-03-30T09:36:41.942Z,11.16
2016-03-30T09:37:41.914Z,11.02
2016-03-30T09:38:41.885Z,10.96
2016-03-30T09:39:41.872Z,10.83
2016-03-30T09:40:41.844Z,10.77
2016-03-30T09:41:41.831Z,10.78
2016-03-30T09:42:41.818Z,10.74
2016-03-30T09:43:41.774Z,10.66
2016-03-30T09:44:41.761Z,10.78
2016-03-30T09:45:42.013Z,10.98
2016-03-30T09:46:41.719Z,11.07
2016-03-30T09:47:41.707Z,11.1
2016-03-30T09:48:41.678Z,11.31
2016-03-30T09:49:41.649Z,11.54
2016-03-30T09:50:41.621Z,11.64
2016-03-30T09:51:41.608Z,11.9
2016-03-30T09:52:41.579Z,11.96
2016-03-30T09:53:41.567Z,11.86
2016-03-30T09:54:41.554Z,11.74
2016-03-30T09:55:41.540Z,11.78
2016-03-30T09:56:41.496Z,11.9
2016-03-30T09:57:41.468Z,11.72
2016-03-30T09:58:41.470Z,11.87
2016-03-30T09:59:41.426Z,11.72
2016-03-30T10:00:41.413Z,11.71
2016-03-30T10:01:41.385Z,11.41
2016-03-30T10:02:41.356Z,11.46
2016-03-30T10:03:41.344Z,11.35
2016-03-30T10:04:41.377Z,11.21
2016-03-30T10:05:41.302Z,11.29
2016-03-30T10:06:41.273Z,11.32
2016-03-30T10:07:41.261Z,11.41
2016-03-30T10:08:41.233Z,11.57
2016-03-30T10:09:41.203Z,11.56
2016-03-30T10:10:41.190Z,11.61
2016-03-30T10:11:41.177Z,11.52
2016-03-30T10:12:41.146Z,11.67
2016-03-30T10:13:41.123Z,11.7
2016-03-30T10:14:41.084Z,11.56
2016-03-30T10:15:40.936Z,11.5
